UUEEUKDD

Guest
Details From UUEE - Moscou Sheremetyevo
To UKDD - Dnipropetrovsk Intl
Flight Number -
Tags Generated
Created
Modified
Stats Distance 466 nm / 862 km
Max Altitude 0 ft / 0 m
Waypoints 4
Social Downloads 1
Likes 0
Share VATSIM

Download

Looking for another format? Having issues loading an existing format? Contact us
Advertisement - Login to hide

Notes

Generated

Route

UUEE ULNER DNP UKDD

ID Type Via Altitude Latitude Longitude Leg Dist Tot Dist Heading (true) Name
O UUEE APT - 0 ft / 0 m 55.96979˚ 37.38673˚ - 0 nm - -
ULNER FIX - 0 ft / 0 m 52.43333˚ 36.18333˚ 216 nm 216 nm 192° / 191° -
DNP VOR - 0 ft / 0 m 48.35953˚ 35.10251˚ 248 nm 464 nm 190° / 189° DNIPROPETROVSK VOR-DME
O UKDD APT - 0 ft / 0 m 48.35722˚ 35.08126˚ 0 nm 465 nm 261° / 261° -

Altitude Profile

Advertisement - Login to hide

Weather


0- 5 10 15 20 25 30 35+ Temperature / ° C

Clouds and Precipitation
Forecast for 2018-05-25 12:00 UTC. Updated 4 hours ago

Ground ~20,000 ft ~40,000 ft Winds

UUEE

Details ICAO UUEE (SVO)
Name Moscou Sheremetyevo
Region Russia
Timezone Europe/Moscow (UTC+3.0)
Stats Elevation 622 ft / 190 m (AMSL)
Location 55.972642° 37.414586°
Runways 2
Magnetic Variation 11.222° E

METAR

UUEE 251530Z 36007MPS CAVOK 17/04 Q1027 R06C/CLRD62 R06R/CLRD62 NOSIG

Decode

TAF

TAF UUEE 251350Z 2515/2615 02007G12MPS CAVOK TX20/2613Z TN07/2602Z BECMG 2518/2522 VRB01MPS

Decode

Departure Runways

ID Width Length Bearing (true) Bearing (mag) Surface Threshold Offset Overrun Length
07L 197 ft / 60 m 11,613 ft / 3,540 m 74.99° 63.77° Concrete 0 ft / 0 m 240 ft / 73 m
07R 197 ft / 60 m 12,127 ft / 3,696 m 75.03° 63.81° Concrete 0 ft / 0 m 235 ft / 72 m
25L 197 ft / 60 m 12,127 ft / 3,696 m 255.08° 243.86° Concrete 0 ft / 0 m 245 ft / 75 m
25R 197 ft / 60 m 11,613 ft / 3,540 m 255.04° 243.82° Concrete 0 ft / 0 m 245 ft / 75 m

UKDD

Details ICAO UKDD (DNK)
Name Dnipropetrovsk Intl
Region Ukraine
Timezone Europe/Kiev (UTC+3.0)
Stats Elevation 481 ft / 147 m (AMSL)
Location 48.357222° 35.100556°
Runways 1
Magnetic Variation 7.890° E

METAR

UKDD 251530Z 05007MPS CAVOK 23/15 Q1015 R08/090070 NOSIG

Decode

TAF

Not found

Destination Runways

ID Width Length Bearing (true) Bearing (mag) Surface Threshold Offset Overrun Length
09 144 ft / 44 m 9,359 ft / 2,853 m 89.99° 82.10° Concrete 0 ft / 0 m 0 ft / 0 m
27 144 ft / 44 m 9,359 ft / 2,853 m 270.01° 262.12° Concrete 0 ft / 0 m 0 ft / 0 m

Approach Navaids

Runway Type Ident Frequency Range Bearing (true) Bearing (mag) Slope Elevation
09 Localiser IDP 109.50 MHz 18 nm / 33 km 80.68° 72.79° - 481 ft / 147 m (AMSL)
09 Glidescope IDP 109.50 MHz 10 nm / 19 km 90.00° 82.11° 2.50° 481 ft / 147 m (AMSL)
27 Localiser IDR 110.30 MHz 18 nm / 33 km 269.98° 262.09° - 481 ft / 147 m (AMSL)
27 Glidescope IDR 110.30 MHz 10 nm / 19 km 270.00° 262.11° 3.00° 481 ft / 147 m (AMSL)

Popular Alternatives